Logo AVAMET
Benvolgut visitant, si us plau, ingressa Recuperar contrasenya

Elx Atzavares Alt

Dades diàries. Acumulats / Últims 30 dies disponibles

Data Temperatura (°C) Humitat rel. (%) Pressió rel. (hPa) Vent (km/h) Precipitació
Mínima Mitjana Màxima Amplitud
tèrmica
Mínima Mitjana Màxima Mínima Mitjana Màxima Predom. Mitjana Ràfega
màxima
Total
(mm)
Índex-n
Mínima Mitjana Màxima Mínima Mitjana Màxima n
0 a 1
P0 max
mm 5'
Dades mensuals acumulades fins l'últim dia disponible
11/2019 5,8 11,2 18,1 15,4 15,3 20,3 28,0 22,2 31 57 93 1.001 1.011 1.021   1,5 43,5 6,2
Dades anuals acumulades fins l'últim dia disponible
2019 2,4 14,2 24,8 19,0 13,1 25,0 39,1 36,7 15 67 96 995 1.016 1.035   0,9 43,5 304,5
Últims 30 dies disponibles
19-11-2019 5,8     10,4     16,2 10,4 42 63 77 1.015 1.017 1.019 SSW 0,8 17,7 0,0
18-11-2019 8,3     12,4     16,9 8,6 47 69 92 1.007 1.011 1.017 SSW 1,8 24,1 4,2 0,30 0,40
17-11-2019 6,7     11,9     17,5 10,8 40 58 84 1.010 1.014 1.017 E 0,5 9,7 1,4
16-11-2019 7,9     11,4     15,8 7,9 40 54 68 1.007 1.012 1.016 SSW 2,3 25,7 0,0
15-11-2019 6,9     11,0     15,3 8,4 45 60 79 1.002 1.005 1.008 E 0,6 17,7 0,0
14-11-2019 8,7     11,9     16,3 7,6 53 76 93 1.001 1.004 1.012 ESE 0,6 30,6 0,4
13-11-2019 11,8     16,4     24,0 12,2 37 62 87 1.007 1.009 1.013 ENE 1,0 29,0 0,0
12-11-2019 11,1     14,5     19,2 8,1 32 48 67 1.010 1.012 1.013 SSW 3,1 27,4 0,0
11-11-2019 9,3     13,4     17,3 8,0 43 54 64 1.011 1.014 1.016 SSW 3,2 27,4 0,0
10-11-2019 10,9     14,2     16,7 5,8 38 53 78 1.010 1.013 1.015 SSW 5,0 43,5 0,0
09-11-2019 11,0     14,6     20,2 9,2 31 50 79 1.014 1.018 1.021 SSW 1,1 27,4 0,2
08-11-2019 11,3     14,4     17,6 6,3 37 47 67 1.011 1.014 1.018 SSW 1,9 27,4 0,0
07-11-2019 9,5     15,9     22,2 12,7 35 57 77 1.008 1.011 1.014 SSW 1,0 17,7 0,0
06-11-2019 12,7     16,4     21,1 8,4 37 52 69 1.012 1.014 1.015 SSW 1,8 27,4 0,0
05-11-2019 14,5     17,9     20,7 6,2 37 52 69 1.007 1.010 1.014 E 1,4 24,1 0,0
04-11-2019 15,7     21,3     26,7 11,0 42 54 74 1.007 1.010 1.012 E 0,6 19,3 0,0
03-11-2019 16,2     21,2     26,6 10,4 36 56 80 1.003 1.006 1.012 E 1,1 20,9 0,0
02-11-2019 18,1     21,8     26,8 8,7 42 61 76 1.005 1.010 1.015 E 0,6 12,9 0,0
01-11-2019 17,2     22,2     28,0 10,8 49 67 82 1.015 1.018 1.021 SSW 0,5 20,9 0,0
31-10-2019 17,5     21,6     26,7 9,2 50 67 90 1.019 1.020 1.021 S 0,5 0,0 0,0
30-10-2019 16,9     20,4     26,6 9,7 58 75 90 1.019 1.020 1.021 SSW 0,5 11,3 0,0
29-10-2019 13,8     19,3     27,4 13,6 50 79 92 1.015 1.017 1.019 N 0,2 11,3 0,0
28-10-2019 13,0     16,8     21,6 8,6 74 85 92 1.016 1.018 1.021 NNE 0,0 4,8 0,0
27-10-2019 14,2     17,4     24,1 9,9 62 82 91 1.020 1.021 1.023 SSW 0,2 9,7 0,0
26-10-2019 12,1     17,3     24,4 12,3 59 79 92 1.020 1.021 1.022 SSW 0,2 6,4 0,0
25-10-2019 14,6     18,3     24,7 10,1 50 66 86 1.021 1.022 1.023 SSW 1,0 22,5 0,0
24-10-2019 9,9     15,7     21,3 11,4 49 68 89 1.012 1.016 1.022 SSW 1,1 25,7 0,0
23-10-2019 9,6     13,6     20,6 11,0 53 82 94 1.007 1.009 1.012 NE 0,2 11,3 0,4
22-10-2019 11,4     13,3     15,8 4,4 89 92 93 1.007 1.010 1.017 SSW 0,8 17,7 21,2
21-10-2019 13,6     16,6     20,3 6,7 49 69 88 1.015 1.016 1.017 SSW 0,6 16,1 0,8
Últims 13 mesos disponibles
10/2019 9,6 15,3 20,1 19,8 15,8 26,0 31,7 22,1 52 74 92 1.009 1.016 1.022 SSW 0,6 29,0 26,2
09/2019 15,7 19,4 23,3 23,4 21,1 28,8 33,4 17,7 61 79 91 1.009 1.016 1.021 SSW 0,9 30,6 116,6
08/2019 19,8 21,7 24,6 26,5 28,3 32,2 39,1 19,3 55 71 81 1.009 1.014 1.018 SSW 0,6 24,1 47,3
07/2019 19,3 21,6 24,8 26,9 29,1 32,6 36,3 17,0 42 64 78 1.005 1.012 1.019 SSW 0,9 19,3 0,0
06/2019 13,4 17,3 21,4 22,9 24,2 28,7 35,7 22,3 43 64 79 1.008 1.014 1.021 SW 1,1 32,2 0,2
05/2019 11,0 14,1 18,4 19,1 20,8 24,9 32,1 21,1 51 69 83 1.005 1.015 1.024 WSW 0,9 30,6 0,4
04/2019 6,5 11,1 14,2 15,6 14,4 21,4 29,9 23,4 45 70 91 1.000 1.013 1.025 SSW 1,0 40,2 94,8
03/2019 6,1 8,7 13,1 14,1 14,3 21,0 29,4 23,3 39 63 91 1.011 1.023 1.030 WSW 1,0 27,4 10,6
02/2019 4,1 7,1 11,4 12,2 14,3 19,5 27,1 23,0 36 65 78 997 1.025 1.033 WSW 1,0 41,8 0,6
01/2019 2,4 6,8 12,7 11,4 13,1 17,5 21,7 19,3 42 60 82 1.005 1.020 1.032 SSW 0,7 38,6 1,6
12/2018 6,5 8,8 12,1 13,1 14,2 19,4 25,0 18,5 53 71 85 1.010 1.026 1.032 SSW 0,5 40,2 8,4
11/2018 6,1 10,5 14,8 14,6 14,8 19,8 24,9 18,8 53 74 91 1.000 1.015 1.022 SSW 0,6 30,6 32,2
10/2018 7,6 14,8 19,2 19,0 14,9 24,9 29,7 22,1 55 74 84 1.005 1.014 1.024 N 0,7 29,0 21,4
Tots els anys disponibles
2018 3,3 13,9 24,6 18,5 10,1 24,2 38,1 34,8 41 73 91 1.000 1.017 1.032 SSW 0,9 48,3 214,0
2017 1,4 13,8 26,8 18,6 7,6 24,4 36,8 35,4 1,1 51,5 162,2
2016 3,2 14,1 23,6 18,6 12,2 24,1 39,6 36,4 1,2 38,6 174,6
2015 -0,3 14,2 20,8 18,7 23,2 24,3 40,7 41,0 67 67 67 1.034 1.034 1.034 1,9 54,7 125,8
2014 0,9 14,4 24,6 19,2 10,1 24,4 37,2 36,3 45 69 88 993 1.015 1.034 45,0 109,4
Temperatura (°C)
Humitat relativa (%)
Velocitat del vent i ràfega màxima (km/h)
Direcció del vent (°)
Pressió (hPa)
Precipitació (mm)
Nota sobre les dades: s'avisa a l'usuari de la provisionalitat i no oficialitat d'aquestes dades
Logo AVAMET blanc
Web allotjada a Sollutia
Llicència de Creative CommonsLa web d'AVAMET i els seus continguts estan subjectes a una llicència de
Reconeixement - No Comercial - Compartir igual
Últimes estacions: Xàbia - Alt de la Granadella (Soci), Villena - Sierra de Salinas (Soci), Sueca - Centre (Inforatge), Xàbia - La Plana (Soci), - - -